Terminal Aerodrome Forecast
Issued by NWS Charleston, WV

Current Version | Previous Version | Graphics & Text | Print | Product List | Glossary On
Versions: 1 2 3 4 5 6 7 8 9 10 11 12 13 14 15 16 17 18 19 20 21 22
000
FTUS41 KRLX 280800 AAA
TAFEKN
TAF AMD
KEKN 280813Z 2808/2906 VRB04KT P6SM OVC050
     FM281000 25007G17KT 6SM -SHRA BR OVC035
     FM281200 25006KT 4SM -SHRA BR OVC025
     FM281500 29006G18KT 2SM -RA BR OVC008=

USA.gov is the U.S. government's official web portal to all federal, state and local government web resources and services.